createdAt,value
2024-02-08T00:01:45.048Z,14.90
2024-02-08T00:04:18.004Z,14.90
2024-02-08T00:06:50.835Z,14.90
2024-02-08T00:09:23.826Z,14.80
2024-02-08T00:11:56.542Z,14.80
2024-02-08T00:14:32.441Z,14.80
2024-02-08T00:17:05.394Z,14.80
2024-02-08T00:19:41.166Z,14.80
2024-02-08T00:22:13.908Z,14.80
2024-02-08T00:24:46.743Z,14.80
2024-02-08T00:27:20.080Z,14.80
2024-02-08T00:29:52.929Z,14.80
2024-02-08T00:32:28.192Z,14.80
2024-02-08T00:35:07.850Z,14.80
2024-02-08T00:37:42.921Z,14.80
2024-02-08T00:40:17.195Z,14.80
2024-02-08T00:42:50.206Z,14.80
2024-02-08T00:45:25.902Z,14.80
2024-02-08T00:47:59.579Z,14.80
2024-02-08T00:50:32.510Z,14.80
2024-02-08T00:53:07.618Z,14.80
2024-02-08T00:55:45.547Z,14.80
2024-02-08T00:58:18.717Z,14.80
2024-02-08T01:00:54.696Z,14.80
2024-02-08T01:03:27.642Z,14.80
2024-02-08T01:06:00.437Z,14.80
2024-02-08T01:08:34.844Z,14.80
2024-02-08T01:11:07.876Z,14.90
2024-02-08T01:13:40.785Z,14.90
2024-02-08T01:16:16.665Z,14.90
2024-02-08T01:18:50.093Z,14.90
2024-02-08T01:21:24.444Z,14.90
2024-02-08T01:23:58.303Z,14.90
2024-02-08T01:26:34.026Z,14.80
2024-02-08T01:29:09.823Z,14.90
2024-02-08T01:31:45.958Z,14.90
2024-02-08T01:34:18.804Z,14.80
2024-02-08T01:36:54.492Z,14.80
2024-02-08T01:39:27.503Z,14.80
2024-02-08T01:42:00.529Z,14.80
2024-02-08T01:44:33.313Z,14.80
2024-02-08T01:47:05.980Z,14.80
2024-02-08T01:49:38.975Z,14.80
2024-02-08T01:52:13.164Z,14.70
2024-02-08T01:54:48.533Z,14.70
2024-02-08T01:57:21.525Z,14.70
2024-02-08T01:59:54.907Z,14.70
2024-02-08T02:02:29.804Z,14.70
2024-02-08T02:05:02.673Z,14.70
2024-02-08T02:07:36.953Z,14.70
2024-02-08T02:10:10.162Z,14.60
2024-02-08T02:12:47.112Z,14.60
2024-02-08T02:15:20.115Z,14.60
2024-02-08T02:17:52.889Z,14.60
2024-02-08T02:20:25.916Z,14.50
2024-02-08T02:23:02.948Z,14.50
2024-02-08T02:25:35.864Z,14.50
2024-02-08T02:28:11.688Z,14.50
2024-02-08T02:30:46.285Z,14.40
2024-02-08T02:33:20.892Z,14.40
2024-02-08T02:35:54.366Z,14.40
2024-02-08T02:38:27.068Z,14.40
2024-02-08T02:41:07.013Z,14.30
2024-02-08T02:43:41.542Z,14.30
2024-02-08T02:46:14.354Z,14.30
2024-02-08T02:48:47.180Z,14.20
2024-02-08T02:51:21.177Z,14.20
2024-02-08T02:53:55.170Z,14.20
2024-02-08T02:56:29.403Z,14.20
2024-02-08T02:59:05.574Z,14.20
2024-02-08T03:01:44.067Z,14.10
2024-02-08T03:04:17.678Z,14.10
2024-02-08T03:06:57.205Z,14.10
2024-02-08T03:09:32.165Z,14.10
2024-02-08T03:12:05.449Z,14.10
2024-02-08T03:14:38.138Z,14.10
2024-02-08T03:17:13.949Z,14.10
2024-02-08T03:19:47.196Z,14.10
2024-02-08T03:22:20.062Z,14.10
2024-02-08T03:24:52.810Z,14.10
2024-02-08T03:27:26.127Z,14.10
2024-02-08T03:29:59.046Z,14.10
2024-02-08T03:32:36.599Z,14.10
2024-02-08T03:35:09.551Z,14.10
2024-02-08T03:37:45.224Z,14.10
2024-02-08T03:40:22.363Z,14.10
2024-02-08T03:42:55.107Z,14.10
2024-02-08T03:45:31.554Z,14.10
2024-02-08T03:48:06.034Z,14.00
2024-02-08T03:50:39.173Z,14.00
2024-02-08T03:53:15.037Z,14.00
2024-02-08T03:55:48.964Z,14.00
2024-02-08T03:58:25.416Z,14.00
2024-02-08T04:01:01.591Z,14.00
2024-02-08T04:03:55.304Z,13.90
2024-02-08T04:06:39.445Z,13.90
2024-02-08T04:09:19.327Z,13.90
2024-02-08T04:12:10.226Z,13.90
2024-02-08T04:15:01.301Z,13.80
2024-02-08T04:17:52.248Z,13.80
2024-02-08T04:20:43.294Z,13.80
2024-02-08T04:23:35.174Z,13.70
2024-02-08T04:26:28.000Z,13.70
2024-02-08T04:29:19.005Z,13.70
2024-02-08T04:32:10.178Z,13.70
2024-02-08T04:35:01.576Z,13.70
2024-02-08T04:37:53.007Z,13.70
2024-02-08T04:40:44.116Z,13.60
2024-02-08T04:43:35.354Z,13.60
2024-02-08T04:46:26.558Z,13.60
2024-02-08T04:49:17.555Z,13.60
2024-02-08T04:52:09.221Z,13.50
2024-02-08T04:54:42.901Z,13.50
2024-02-08T04:57:15.618Z,13.50
2024-02-08T04:59:53.213Z,13.50
2024-02-08T05:02:28.315Z,13.40
2024-02-08T05:05:01.195Z,13.40
2024-02-08T05:07:34.154Z,13.40
2024-02-08T05:10:10.320Z,13.40
2024-02-08T05:12:48.226Z,13.40
2024-02-08T05:15:23.894Z,13.40
2024-02-08T05:17:56.732Z,13.40
2024-02-08T05:20:31.026Z,13.40
2024-02-08T05:23:04.609Z,13.40
2024-02-08T05:25:38.054Z,13.40
2024-02-08T05:28:11.874Z,13.40
2024-02-08T05:30:44.688Z,13.40
2024-02-08T05:33:18.414Z,13.40
2024-02-08T05:35:52.994Z,13.40
2024-02-08T05:38:35.301Z,13.40
2024-02-08T05:41:09.538Z,13.40
2024-02-08T05:43:48.912Z,13.40
2024-02-08T05:46:31.646Z,13.40
2024-02-08T05:49:13.359Z,13.40
2024-02-08T05:52:08.378Z,13.30
2024-02-08T05:54:48.147Z,13.30
2024-02-08T05:57:23.152Z,13.30
2024-02-08T06:00:02.342Z,13.30
2024-02-08T06:02:47.691Z,13.30
2024-02-08T06:05:28.286Z,13.30
2024-02-08T06:08:04.333Z,13.30
2024-02-08T06:10:47.307Z,13.20
2024-02-08T06:13:23.959Z,13.30
2024-02-08T06:16:02.483Z,13.20
2024-02-08T06:18:36.743Z,13.20
2024-02-08T06:21:15.328Z,13.30
2024-02-08T06:23:50.005Z,13.30
2024-02-08T06:26:29.548Z,13.30
2024-02-08T06:29:07.394Z,13.40
2024-02-08T06:31:52.221Z,13.50
2024-02-08T06:34:44.237Z,13.60
2024-02-08T06:37:28.114Z,13.70
2024-02-08T06:40:05.976Z,13.80
2024-02-08T06:42:41.424Z,13.90
2024-02-08T06:45:26.510Z,14.00
2024-02-08T06:48:02.665Z,14.10
2024-02-08T06:50:53.848Z,14.20
2024-02-08T06:53:44.914Z,14.30
2024-02-08T06:56:35.878Z,14.40
2024-02-08T06:59:27.142Z,14.60
2024-02-08T07:02:18.486Z,14.70
2024-02-08T07:05:13.166Z,14.80
2024-02-08T07:08:04.699Z,14.90
2024-02-08T07:10:55.980Z,15.00
2024-02-08T07:13:47.292Z,15.10
2024-02-08T07:16:38.231Z,15.20
2024-02-08T07:19:29.275Z,15.30
2024-02-08T07:22:20.570Z,15.50
2024-02-08T07:25:11.944Z,15.60
2024-02-08T07:28:06.398Z,15.70
2024-02-08T07:30:58.488Z,15.80
2024-02-08T07:33:49.787Z,15.90
2024-02-08T07:36:41.176Z,16.00
2024-02-08T07:39:32.173Z,16.10
2024-02-08T07:42:14.344Z,16.20
2024-02-08T07:44:51.796Z,16.30
2024-02-08T07:47:28.814Z,16.40
2024-02-08T07:50:09.784Z,16.50
2024-02-08T07:52:51.280Z,16.60
2024-02-08T07:55:43.891Z,16.60
2024-02-08T07:58:20.306Z,16.80
2024-02-08T08:00:58.444Z,16.80
2024-02-08T08:03:36.901Z,16.90
2024-02-08T08:06:09.745Z,16.90
2024-02-08T08:08:59.120Z,17.10
2024-02-08T08:11:32.751Z,17.10
2024-02-08T08:14:05.618Z,17.20
2024-02-08T08:16:38.488Z,17.30
2024-02-08T08:19:11.956Z,17.40
2024-02-08T08:22:04.246Z,17.50
2024-02-08T08:24:57.113Z,17.60
2024-02-08T08:27:35.081Z,17.70
2024-02-08T08:30:08.795Z,17.70
2024-02-08T08:32:41.719Z,17.80
2024-02-08T08:35:39.192Z,17.90
2024-02-08T08:38:30.332Z,17.90
2024-02-08T08:41:08.802Z,18.00
2024-02-08T08:43:54.896Z,18.10
2024-02-08T08:46:28.170Z,18.10
2024-02-08T08:49:06.096Z,18.20
2024-02-08T08:51:39.161Z,18.30
2024-02-08T08:54:27.127Z,18.30
2024-02-08T08:57:00.007Z,18.40
2024-02-08T08:59:34.252Z,18.40
2024-02-08T09:02:07.040Z,18.40
2024-02-08T09:04:40.079Z,18.50
2024-02-08T09:07:13.645Z,18.50
2024-02-08T09:10:05.726Z,18.60
2024-02-08T09:12:40.585Z,18.70
2024-02-08T09:15:28.272Z,18.70
2024-02-08T09:18:10.523Z,18.80
2024-02-08T09:20:44.590Z,18.80
2024-02-08T09:23:19.309Z,18.90
2024-02-08T09:25:54.111Z,18.90
2024-02-08T09:28:37.484Z,19.00
2024-02-08T09:31:18.513Z,19.10
2024-02-08T09:34:02.886Z,19.20
2024-02-08T09:36:36.068Z,19.20
2024-02-08T09:39:16.466Z,19.30
2024-02-08T09:41:49.479Z,19.30
2024-02-08T09:44:27.529Z,19.30
2024-02-08T09:47:05.974Z,19.40
2024-02-08T09:49:43.176Z,19.30
2024-02-08T09:52:18.345Z,19.40
2024-02-08T09:54:56.691Z,19.40
2024-02-08T09:57:37.437Z,19.50
2024-02-08T10:00:30.970Z,19.50
2024-02-08T10:03:07.373Z,19.50
2024-02-08T10:05:53.627Z,19.60
2024-02-08T10:08:30.432Z,19.70
2024-02-08T10:11:21.653Z,19.70
2024-02-08T10:14:03.598Z,19.80
2024-02-08T10:16:49.246Z,19.80
2024-02-08T10:19:28.245Z,19.90
2024-02-08T10:22:12.296Z,19.90
2024-02-08T10:24:51.960Z,20.00
2024-02-08T10:27:24.937Z,20.00
2024-02-08T10:30:06.966Z,20.00
2024-02-08T10:32:40.932Z,20.00
2024-02-08T10:35:21.901Z,20.00
2024-02-08T10:38:09.328Z,20.00
2024-02-08T10:40:48.459Z,20.00
2024-02-08T10:43:26.537Z,20.00
2024-02-08T10:46:18.190Z,20.10
2024-02-08T10:48:51.746Z,20.00
2024-02-08T10:51:27.732Z,20.00
2024-02-08T10:54:07.319Z,20.00
2024-02-08T10:56:49.580Z,19.90
2024-02-08T10:59:41.181Z,19.90
2024-02-08T11:02:42.266Z,19.80
2024-02-08T11:05:22.817Z,19.70
2024-02-08T11:07:59.694Z,19.60
2024-02-08T11:10:57.888Z,19.40
2024-02-08T11:13:39.429Z,19.40
2024-02-08T11:16:23.556Z,19.30
2024-02-08T11:18:58.033Z,19.20
2024-02-08T11:21:45.377Z,19.10
2024-02-08T11:24:30.289Z,19.10
2024-02-08T11:27:05.829Z,19.00
2024-02-08T11:29:49.246Z,18.90
2024-02-08T11:32:26.031Z,18.80
2024-02-08T11:35:02.551Z,18.70
2024-02-08T11:37:40.265Z,18.70
2024-02-08T11:40:13.611Z,18.60
2024-02-08T11:42:49.994Z,18.60
2024-02-08T11:45:23.974Z,18.50
2024-02-08T11:47:59.759Z,18.40
2024-02-08T11:50:38.068Z,18.40
2024-02-08T11:53:11.186Z,18.40
2024-02-08T11:55:46.666Z,18.40
2024-02-08T11:58:19.775Z,18.30
2024-02-08T12:00:52.949Z,18.30
2024-02-08T12:03:28.257Z,18.30
2024-02-08T12:06:02.579Z,18.20
2024-02-08T12:08:43.070Z,18.10
2024-02-08T12:11:23.875Z,18.10
2024-02-08T12:14:04.664Z,18.00
2024-02-08T12:16:52.294Z,17.90
2024-02-08T12:19:27.257Z,17.90
2024-02-08T12:22:05.821Z,17.90
2024-02-08T12:24:41.695Z,17.90
2024-02-08T12:27:26.946Z,17.90
2024-02-08T12:30:02.455Z,17.90
2024-02-08T12:32:35.327Z,17.90
2024-02-08T12:35:15.389Z,17.90
2024-02-08T12:37:52.033Z,17.90
2024-02-08T12:40:30.924Z,17.90
2024-02-08T12:43:10.115Z,17.90
2024-02-08T12:45:43.674Z,17.90
2024-02-08T12:48:18.460Z,17.90
2024-02-08T12:50:56.526Z,17.90
2024-02-08T12:53:29.270Z,17.80
2024-02-08T12:56:14.861Z,17.80
2024-02-08T12:59:03.414Z,17.80
2024-02-08T13:01:43.228Z,17.80
2024-02-08T13:04:18.225Z,17.80
2024-02-08T13:06:51.941Z,17.70
2024-02-08T13:09:28.359Z,17.70
2024-02-08T13:12:24.156Z,17.70
2024-02-08T13:15:04.221Z,17.70
2024-02-08T13:17:37.455Z,17.60
2024-02-08T13:20:14.227Z,17.60
2024-02-08T13:22:48.736Z,17.60
2024-02-08T13:25:21.669Z,17.60
2024-02-08T13:27:54.577Z,17.50
2024-02-08T13:30:31.301Z,17.50
2024-02-08T13:33:06.929Z,17.50
2024-02-08T13:35:44.042Z,17.50
2024-02-08T13:38:17.468Z,17.50
2024-02-08T13:41:00.956Z,17.50
2024-02-08T13:43:34.639Z,17.50
2024-02-08T13:46:12.000Z,17.50
2024-02-08T13:48:45.048Z,17.50
2024-02-08T13:51:18.286Z,17.40
2024-02-08T13:53:51.533Z,17.40
2024-02-08T13:56:24.238Z,17.40
2024-02-08T13:59:01.946Z,17.40
2024-02-08T14:01:34.780Z,17.40
2024-02-08T14:04:07.714Z,17.40
2024-02-08T14:06:42.833Z,17.30
2024-02-08T14:09:22.381Z,17.30
2024-02-08T14:11:57.451Z,17.30
2024-02-08T14:14:42.001Z,17.20
2024-02-08T14:17:21.958Z,17.20
2024-02-08T14:19:57.094Z,17.20
2024-02-08T14:22:40.241Z,17.20
2024-02-08T14:25:25.386Z,17.30
2024-02-08T14:27:58.760Z,17.30
2024-02-08T14:30:35.571Z,17.30
2024-02-08T14:33:10.348Z,17.20
2024-02-08T14:35:48.138Z,17.20
2024-02-08T14:38:21.460Z,17.20
2024-02-08T14:40:55.303Z,17.20
2024-02-08T14:43:33.451Z,17.20
2024-02-08T14:46:08.670Z,17.20
2024-02-08T14:48:41.467Z,17.10
2024-02-08T14:51:20.152Z,17.10
2024-02-08T14:53:59.674Z,17.10
2024-02-08T14:56:32.461Z,17.10
2024-02-08T14:59:11.139Z,17.10
2024-02-08T15:01:53.556Z,17.10
2024-02-08T15:04:32.460Z,17.10
2024-02-08T15:07:07.932Z,17.10
2024-02-08T15:09:43.572Z,17.10
2024-02-08T15:12:28.549Z,17.10
2024-02-08T15:15:09.422Z,17.10
2024-02-08T15:17:44.630Z,17.00
2024-02-08T15:20:37.432Z,17.00
2024-02-08T15:23:13.344Z,17.00
2024-02-08T15:25:49.823Z,17.00
2024-02-08T15:28:49.851Z,17.00
2024-02-08T15:31:41.054Z,16.90
2024-02-08T15:34:17.958Z,16.90
2024-02-08T15:37:12.135Z,16.90
2024-02-08T15:39:44.841Z,16.80
2024-02-08T15:42:40.721Z,16.90
2024-02-08T15:45:17.699Z,16.90
2024-02-08T15:47:56.900Z,16.80
2024-02-08T15:50:45.521Z,16.80
2024-02-08T15:53:19.518Z,16.80
2024-02-08T15:55:57.852Z,16.80
2024-02-08T15:58:31.408Z,16.80
2024-02-08T16:01:19.778Z,16.80
2024-02-08T16:04:00.983Z,16.80
2024-02-08T16:06:39.643Z,16.80
2024-02-08T16:09:34.454Z,16.80
2024-02-08T16:12:38.061Z,16.80
2024-02-08T16:15:18.801Z,16.80
2024-02-08T16:18:04.930Z,16.80
2024-02-08T16:20:40.372Z,16.80
2024-02-08T16:23:15.682Z,16.70
2024-02-08T16:26:08.893Z,16.70
2024-02-08T16:28:51.469Z,16.70
2024-02-08T16:31:33.038Z,16.70
2024-02-08T16:34:24.724Z,16.70
2024-02-08T16:37:05.463Z,16.70
2024-02-08T16:39:56.285Z,16.70
2024-02-08T16:42:36.458Z,16.60
2024-02-08T16:45:19.278Z,16.60
2024-02-08T16:47:57.806Z,16.60
2024-02-08T16:50:46.688Z,16.60
2024-02-08T16:53:23.800Z,16.60
2024-02-08T16:56:00.344Z,16.60
2024-02-08T16:58:45.653Z,16.60
2024-02-08T17:01:30.293Z,16.60
2024-02-08T17:04:18.665Z,16.60
2024-02-08T17:07:00.402Z,16.60
2024-02-08T17:09:45.097Z,16.50
2024-02-08T17:12:44.286Z,16.50
2024-02-08T17:15:28.716Z,16.50
2024-02-08T17:18:07.951Z,16.50
2024-02-08T17:20:59.368Z,16.50
2024-02-08T17:23:43.316Z,16.50
2024-02-08T17:26:39.136Z,16.50
2024-02-08T17:29:20.881Z,16.50
2024-02-08T17:31:57.658Z,16.50
2024-02-08T17:34:30.440Z,16.50
2024-02-08T17:37:05.033Z,16.50
2024-02-08T17:39:42.095Z,16.50
2024-02-08T17:42:15.156Z,16.50
2024-02-08T17:44:56.095Z,16.50
2024-02-08T17:47:36.513Z,16.50
2024-02-08T17:50:14.484Z,16.50
2024-02-08T17:52:51.609Z,16.50
2024-02-08T17:55:35.001Z,16.50
2024-02-08T17:58:14.335Z,16.50
2024-02-08T18:00:49.860Z,16.50
2024-02-08T18:03:27.372Z,16.50
2024-02-08T18:06:04.923Z,16.50
2024-02-08T18:08:40.176Z,16.50
2024-02-08T18:11:17.781Z,16.50
2024-02-08T18:13:50.996Z,16.50
2024-02-08T18:16:29.737Z,16.50
2024-02-08T18:19:05.463Z,16.50
2024-02-08T18:21:42.068Z,16.50
2024-02-08T18:24:14.840Z,16.40
2024-02-08T18:27:02.179Z,16.40
2024-02-08T18:29:37.389Z,16.40
2024-02-08T18:32:12.444Z,16.40
2024-02-08T18:34:50.988Z,16.40
2024-02-08T18:37:29.341Z,16.40
2024-02-08T18:40:09.499Z,16.40
2024-02-08T18:42:46.016Z,16.30
2024-02-08T18:45:20.961Z,16.30
2024-02-08T18:48:02.510Z,16.30
2024-02-08T18:50:35.327Z,16.30
2024-02-08T18:53:10.389Z,16.30
2024-02-08T18:55:47.340Z,16.20
2024-02-08T18:58:23.246Z,16.20
2024-02-08T19:00:58.834Z,16.20
2024-02-08T19:03:37.900Z,16.20
2024-02-08T19:06:16.579Z,16.20
2024-02-08T19:08:54.246Z,16.10
2024-02-08T19:11:27.726Z,16.20
2024-02-08T19:14:05.482Z,16.10
2024-02-08T19:16:43.752Z,16.10
2024-02-08T19:19:18.931Z,16.10
2024-02-08T19:21:54.897Z,16.10
2024-02-08T19:24:30.304Z,16.00
2024-02-08T19:27:03.967Z,16.10
2024-02-08T19:29:40.002Z,16.00
2024-02-08T19:32:22.200Z,16.00
2024-02-08T19:34:58.112Z,16.00
2024-02-08T19:37:35.378Z,16.00
2024-02-08T19:40:11.220Z,16.00
2024-02-08T19:42:46.352Z,16.00
2024-02-08T19:45:34.844Z,16.00
2024-02-08T19:48:19.544Z,15.90
2024-02-08T19:50:54.320Z,15.90
2024-02-08T19:53:31.721Z,15.90
2024-02-08T19:56:09.144Z,15.90
2024-02-08T19:58:42.205Z,15.90
2024-02-08T20:01:20.077Z,15.80
2024-02-08T20:03:58.375Z,15.80
2024-02-08T20:06:31.652Z,15.80
2024-02-08T20:09:09.530Z,15.80
2024-02-08T20:11:43.108Z,15.80
2024-02-08T20:14:19.515Z,15.80
2024-02-08T20:16:55.522Z,15.80
2024-02-08T20:19:30.891Z,15.70
2024-02-08T20:22:05.529Z,15.70
2024-02-08T20:24:45.338Z,15.70
2024-02-08T20:27:23.577Z,15.70
2024-02-08T20:29:57.475Z,15.70
2024-02-08T20:32:31.783Z,15.70
2024-02-08T20:35:04.965Z,15.70
2024-02-08T20:37:37.657Z,15.70
2024-02-08T20:40:13.013Z,15.60
2024-02-08T20:42:50.537Z,15.60
2024-02-08T20:45:28.515Z,15.60
2024-02-08T20:48:09.938Z,15.50
2024-02-08T20:50:43.047Z,15.50
2024-02-08T20:53:18.715Z,15.50
2024-02-08T20:55:52.789Z,15.50
2024-02-08T20:58:26.245Z,15.50
2024-02-08T21:01:03.077Z,15.50
2024-02-08T21:03:38.557Z,15.50
2024-02-08T21:06:11.723Z,15.40
2024-02-08T21:08:47.558Z,15.50
2024-02-08T21:11:20.731Z,15.40
2024-02-08T21:13:56.488Z,15.40
2024-02-08T21:16:31.333Z,15.40
2024-02-08T21:19:10.469Z,15.40
2024-02-08T21:21:43.528Z,15.30
2024-02-08T21:24:16.633Z,15.30
2024-02-08T21:26:55.182Z,15.30
2024-02-08T21:29:38.283Z,15.30
2024-02-08T21:32:11.100Z,15.30
2024-02-08T21:34:43.885Z,15.30
2024-02-08T21:37:16.673Z,15.20
2024-02-08T21:39:52.505Z,15.20
2024-02-08T21:42:25.175Z,15.20
2024-02-08T21:44:58.783Z,15.20
2024-02-08T21:47:31.764Z,15.20
2024-02-08T21:50:08.775Z,15.20
2024-02-08T21:52:42.169Z,15.20
2024-02-08T21:55:17.454Z,15.20
2024-02-08T21:57:50.285Z,15.20
2024-02-08T22:00:22.996Z,15.10
2024-02-08T22:02:57.186Z,15.10
2024-02-08T22:05:30.118Z,15.20
2024-02-08T22:08:05.024Z,15.10
2024-02-08T22:10:37.825Z,15.10
2024-02-08T22:13:12.453Z,15.10
2024-02-08T22:15:45.373Z,15.10
2024-02-08T22:18:18.136Z,15.10
2024-02-08T22:21:05.411Z,15.00
2024-02-08T22:23:44.436Z,15.00
2024-02-08T22:26:18.333Z,15.00
2024-02-08T22:28:51.216Z,15.00
2024-02-08T22:31:27.734Z,15.00
2024-02-08T22:34:00.734Z,15.00
2024-02-08T22:36:39.092Z,15.00
2024-02-08T22:39:15.575Z,15.00
2024-02-08T22:41:51.349Z,15.00
2024-02-08T22:44:24.082Z,15.00
2024-02-08T22:46:56.864Z,15.00
2024-02-08T22:49:29.902Z,15.00
2024-02-08T22:52:02.905Z,15.00
2024-02-08T22:54:35.731Z,14.90
2024-02-08T22:57:08.358Z,15.00
2024-02-08T22:59:41.035Z,15.00
2024-02-08T23:02:17.800Z,15.00
2024-02-08T23:04:52.928Z,15.00
2024-02-08T23:07:26.094Z,15.00
2024-02-08T23:09:58.901Z,15.00
2024-02-08T23:12:31.570Z,15.00
2024-02-08T23:15:05.867Z,15.00
2024-02-08T23:17:38.513Z,15.00
2024-02-08T23:20:12.531Z,15.00
2024-02-08T23:22:48.695Z,15.00
2024-02-08T23:25:24.920Z,15.00
2024-02-08T23:27:57.723Z,15.00
2024-02-08T23:30:31.867Z,15.00
2024-02-08T23:33:04.889Z,15.00
2024-02-08T23:35:38.621Z,14.90
2024-02-08T23:38:11.268Z,15.00
2024-02-08T23:40:45.313Z,14.90
2024-02-08T23:43:18.431Z,15.00
2024-02-08T23:45:51.767Z,15.00
2024-02-08T23:48:24.575Z,14.90
2024-02-08T23:50:58.649Z,14.90
2024-02-08T23:53:36.798Z,14.90
2024-02-08T23:56:10.081Z,14.90
2024-02-08T23:58:47.667Z,14.90
